< Cyclone 200403 2004 Season Cyclone 200405 >
Cyclone 200404 (FRITZ)
General InformationTrack Information on Google MapsDetailed Wind InformationList of All Images || ResourceGoogle EarthGE AnimationAtom FeedGeoJSON
Detalied Best Track (Time Zone = UTC)
Year Month Day Hour Lat. Long. Pressure (hPa) Wind (kt) Class Image Chart
2004 2 10 06 -13.7 146.7 1000 30 2 Image --
2004 2 10 12 -14.2 145.4 995 35 3 Image --
2004 2 10 18 -14.5 144.3 997 30 2 Image --
2004 2 11 00 -15.4 143.4 999 25 2 Image --
2004 2 11 06 -16.1 142.4 999 25 2 Image --
2004 2 11 12 -16.3 141.3 996 25 2 Image --
2004 2 11 18 -16.5 140.6 990 40 3 Image --
2004 2 12 00 -16.6 139.7 985 49 4 Image --
2004 2 12 06 -16.3 138.9 992 40 3 Image --
2004 2 12 12 -16.6 138.8 992 40 3 Image --
2004 2 12 18 -16.9 137.3 993 30 2 Image --
2004 2 13 00 -17.0 136.3 996 25 2 Image --
2004 2 13 06 -17.5 135.6 994 25 2 Image --
2004 2 13 12 -17.9 134.1 994 25 2 Image --
2004 2 13 18 -18.3 132.5 994 25 2 Image --
2004 2 14 00 -19.0 131.3 994 25 2 Image --
2004 2 14 06 -19.6 130.1 992 25 2 Image --
2004 2 14 12 -19.7 128.9 992 25 2 Image --
2004 2 14 18 -20.3 127.7 994 20 2 Image --
2004 2 15 00 -21.1 126.3 996 20 2 Image --
< Cyclone 200403 2004 Season Cyclone 200405 >

Help